createdAt,value
2022-10-28T00:04:53.056Z,98.20
2022-10-28T00:14:56.524Z,94.00
2022-10-28T00:25:00.293Z,96.90
2022-10-28T00:35:03.334Z,95.50
2022-10-28T00:45:09.540Z,85.50
2022-10-28T00:55:15.058Z,90.50
2022-10-28T01:05:17.504Z,84.40
2022-10-28T01:15:27.515Z,82.60
2022-10-28T01:25:46.047Z,83.70
2022-10-28T01:35:51.909Z,85.20
2022-10-28T01:45:56.169Z,83.50
2022-10-28T01:56:04.512Z,87.00
2022-10-28T02:06:15.054Z,84.20
2022-10-28T02:16:18.254Z,73.70
2022-10-28T02:26:24.694Z,83.70
2022-10-28T02:36:32.362Z,90.10
2022-10-28T02:46:37.668Z,73.90
2022-10-28T02:56:46.448Z,69.80
2022-10-28T03:06:49.966Z,65.50
2022-10-28T03:16:53.603Z,59.70
2022-10-28T03:26:57.255Z,61.50
2022-10-28T03:37:00.800Z,65.10
2022-10-28T03:47:04.464Z,60.00
2022-10-28T03:57:08.044Z,55.60
2022-10-28T04:07:11.753Z,50.70
2022-10-28T04:17:16.286Z,49.00
2022-10-28T04:27:19.866Z,50.30
2022-10-28T04:37:23.437Z,53.20
2022-10-28T04:47:26.886Z,48.20
2022-10-28T04:57:31.953Z,48.90
2022-10-28T05:07:35.573Z,51.10
2022-10-28T05:17:38.683Z,46.70
2022-10-28T05:27:42.495Z,42.50
2022-10-28T05:37:45.771Z,36.90
2022-10-28T05:47:49.673Z,42.10
2022-10-28T05:57:54.025Z,35.30
2022-10-28T06:07:57.735Z,33.90
2022-10-28T06:17:59.895Z,44.80
2022-10-28T06:28:05.834Z,38.70
2022-10-28T06:38:13.843Z,42.90
2022-10-28T06:48:19.147Z,37.00
2022-10-28T06:58:23.424Z,41.70
2022-10-28T07:08:34.510Z,39.80
2022-10-28T07:18:38.392Z,30.30
2022-10-28T07:28:41.753Z,35.40
2022-10-28T07:38:48.127Z,27.40
2022-10-28T07:48:51.633Z,25.70
2022-10-28T07:58:55.984Z,17.50
2022-10-28T08:08:59.610Z,16.10
2022-10-28T08:19:07.512Z,17.50
2022-10-28T08:29:12.542Z,18.00
2022-10-28T08:39:16.356Z,20.40
2022-10-28T08:49:24.700Z,14.40
2022-10-28T08:59:27.135Z,14.30
2022-10-28T09:09:31.870Z,16.30
2022-10-28T09:19:37.203Z,12.50
2022-10-28T09:29:45.584Z,16.20
2022-10-28T09:39:51.266Z,15.50
2022-10-28T09:49:57.625Z,10.40
2022-10-28T10:00:01.580Z,12.10
2022-10-28T10:20:10.958Z,10.30
2022-10-28T10:30:16.920Z,8.60
2022-10-28T10:40:47.206Z,13.70
2022-10-28T10:50:52.556Z,12.60
2022-10-28T11:00:56.913Z,6.70
2022-10-28T11:11:12.676Z,8.00
2022-10-28T11:21:27.720Z,8.80
2022-10-28T11:32:03.034Z,11.00
2022-10-28T11:42:11.055Z,11.60
2022-10-28T11:52:21.717Z,9.10
2022-10-28T12:02:30.632Z,9.50
2022-10-28T12:12:33.865Z,17.10
2022-10-28T12:22:46.329Z,8.10
2022-10-28T12:33:12.348Z,10.80
2022-10-28T12:43:24.574Z,7.00
2022-10-28T12:53:30.004Z,10.70
2022-10-28T13:03:33.524Z,12.60
2022-10-28T13:13:54.849Z,7.30
2022-10-28T13:23:58.551Z,8.10
2022-10-28T13:34:02.262Z,8.90
2022-10-28T13:44:25.961Z,8.90
2022-10-28T13:54:30.342Z,7.30
2022-10-28T14:04:34.950Z,8.20
2022-10-28T14:14:39.822Z,7.90
2022-10-28T14:25:02.796Z,8.00
2022-10-28T14:35:18.180Z,9.60
2022-10-28T14:45:41.013Z,7.30
2022-10-28T14:55:46.930Z,9.20
2022-10-28T15:05:50.625Z,15.30
2022-10-28T15:16:19.098Z,11.60
2022-10-28T15:26:41.057Z,11.70
2022-10-28T15:36:49.295Z,10.70
2022-10-28T15:56:59.249Z,20.00
2022-10-28T16:07:06.159Z,24.10
2022-10-28T16:17:15.120Z,19.70
2022-10-28T16:27:18.185Z,18.40
2022-10-28T16:37:21.627Z,23.40
2022-10-28T16:47:26.448Z,30.70
2022-10-28T16:57:30.021Z,22.80
2022-10-28T17:07:33.859Z,25.20
2022-10-28T17:17:37.529Z,25.00
2022-10-28T17:27:41.716Z,25.80
2022-10-28T17:37:45.535Z,23.90
2022-10-28T17:47:48.644Z,22.20
2022-10-28T17:57:52.829Z,16.80
2022-10-28T18:07:56.981Z,22.70
2022-10-28T18:18:00.705Z,21.30
2022-10-28T18:28:05.225Z,26.20
2022-10-28T18:38:09.021Z,25.70
2022-10-28T18:48:30.669Z,22.80
2022-10-28T18:58:34.540Z,30.00
2022-10-28T19:08:58.025Z,27.70
2022-10-28T19:19:02.673Z,23.30
2022-10-28T19:29:24.872Z,23.40
2022-10-28T19:39:46.933Z,26.20
2022-10-28T19:49:50.710Z,22.30
2022-10-28T19:59:54.772Z,21.40
2022-10-28T20:20:03.558Z,23.40
2022-10-28T20:30:24.601Z,25.30
2022-10-28T20:40:28.248Z,24.30
2022-10-28T20:50:31.831Z,25.80
2022-10-28T21:00:54.608Z,23.90
2022-10-28T21:11:17.732Z,28.00
2022-10-28T21:21:39.872Z,25.80
2022-10-28T21:31:43.522Z,25.60
2022-10-28T21:41:47.273Z,26.10
2022-10-28T21:51:51.392Z,26.90
2022-10-28T22:02:13.452Z,25.90
2022-10-28T22:12:17.316Z,28.90
2022-10-28T22:22:20.784Z,27.20
2022-10-28T22:32:24.412Z,28.40
2022-10-28T22:42:46.173Z,37.50
2022-10-28T22:53:08.190Z,29.20
2022-10-28T23:03:34.823Z,27.90
2022-10-28T23:13:38.789Z,27.80
2022-10-28T23:23:46.201Z,26.40
2022-10-28T23:34:09.493Z,29.90
2022-10-28T23:44:31.188Z,28.50
2022-10-28T23:54:34.841Z,31.20
